createdAt,value
2018-03-03T00:01:05.150Z,94168.39
2018-03-03T00:02:42.485Z,94198.05
2018-03-03T00:04:19.391Z,94197.70
2018-03-03T00:05:56.875Z,94189.95
2018-03-03T00:07:36.230Z,94193.39
2018-03-03T00:09:14.246Z,94196.45
2018-03-03T00:10:52.467Z,94207.05
2018-03-03T00:12:29.891Z,94200.69
2018-03-03T00:14:07.120Z,94203.61
2018-03-03T00:15:44.917Z,94235.58
2018-03-03T00:17:22.346Z,94241.08
2018-03-03T00:19:00.067Z,94248.36
2018-03-03T00:20:37.215Z,94241.81
2018-03-03T00:22:26.664Z,94199.00
2018-03-03T00:24:04.213Z,94207.47
2018-03-03T00:25:42.795Z,94213.92
2018-03-03T00:27:20.825Z,94235.62
2018-03-03T00:28:58.986Z,94219.91
2018-03-03T00:30:37.327Z,94201.06
2018-03-03T00:32:16.612Z,94187.95
2018-03-03T00:33:54.045Z,94204.96
2018-03-03T00:35:31.855Z,94239.89
2018-03-03T00:37:10.979Z,94212.25
2018-03-03T00:38:48.673Z,94194.83
2018-03-03T00:40:27.235Z,94209.74
2018-03-03T00:42:04.538Z,94204.25
2018-03-03T00:43:42.156Z,94211.00
2018-03-03T00:45:20.844Z,94181.55
2018-03-03T00:46:59.155Z,94167.61
2018-03-03T00:48:36.638Z,94163.66
2018-03-03T00:50:14.181Z,94185.03
2018-03-03T00:51:51.955Z,94199.05
2018-03-03T00:53:29.344Z,94233.11
2018-03-03T00:55:06.788Z,94223.22
2018-03-03T00:56:44.337Z,94203.70
2018-03-03T00:58:22.542Z,94213.55
2018-03-03T01:00:00.796Z,94219.08
2018-03-03T01:01:38.508Z,94224.94
2018-03-03T01:03:18.635Z,94239.02
2018-03-03T01:04:56.638Z,94244.92
2018-03-03T01:06:34.181Z,94215.64
2018-03-03T01:08:12.592Z,94216.48
2018-03-03T01:09:50.108Z,94233.48
2018-03-03T01:11:28.158Z,94270.58
2018-03-03T01:13:05.925Z,94270.95
2018-03-03T01:14:43.322Z,94273.09
2018-03-03T01:16:21.465Z,94270.11
2018-03-03T01:18:00.253Z,94255.70
2018-03-03T01:19:37.979Z,94224.94
2018-03-03T01:21:15.878Z,94199.05
2018-03-03T01:22:54.884Z,94189.25
2018-03-03T01:24:33.786Z,94167.98
2018-03-03T01:26:11.801Z,94129.28
2018-03-03T01:29:30.912Z,94198.22
2018-03-03T01:31:11.004Z,94198.68
2018-03-03T01:32:48.611Z,94202.11
2018-03-03T01:34:27.154Z,94173.55
2018-03-03T01:36:05.536Z,94164.59
2018-03-03T01:37:43.674Z,94145.16
2018-03-03T01:39:21.481Z,94129.42
2018-03-03T01:40:59.108Z,94137.75
2018-03-03T01:42:36.579Z,94175.31
2018-03-03T01:44:16.119Z,94194.83
2018-03-03T01:45:54.433Z,94178.28
2018-03-03T01:47:32.470Z,94219.12
2018-03-03T01:49:10.725Z,94230.98
2018-03-03T01:50:49.779Z,94233.58
2018-03-03T01:52:27.069Z,94226.78
2018-03-03T01:54:06.155Z,94237.44
2018-03-03T01:55:45.005Z,94282.09
2018-03-03T01:57:24.451Z,94296.61
2018-03-03T02:00:41.225Z,94276.15
2018-03-03T02:02:19.964Z,94296.05
2018-03-03T02:03:58.790Z,94297.81
2018-03-03T02:05:37.594Z,94282.14
2018-03-03T02:07:15.603Z,94315.80
2018-03-03T02:08:53.411Z,94377.09
2018-03-03T02:10:32.655Z,94404.36
2018-03-03T02:12:10.345Z,94376.30
2018-03-03T02:13:48.380Z,94350.21
2018-03-03T02:15:26.125Z,94331.89
2018-03-03T02:17:04.024Z,94310.68
2018-03-03T02:18:44.703Z,94319.98
2018-03-03T02:20:23.442Z,94322.55
2018-03-03T02:22:00.602Z,94320.50
2018-03-03T02:23:39.698Z,94314.41
2018-03-03T02:25:18.448Z,94340.50
2018-03-03T02:26:56.088Z,94353.23
2018-03-03T02:28:33.936Z,94385.19
2018-03-03T02:30:15.280Z,94390.77
2018-03-03T02:31:53.422Z,94357.59
2018-03-03T02:33:31.087Z,94360.11
2018-03-03T02:35:08.997Z,94357.17
2018-03-03T02:36:48.412Z,94343.47
2018-03-03T02:38:26.467Z,94331.52
2018-03-03T02:40:04.277Z,94333.70
2018-03-03T02:41:42.090Z,94354.53
2018-03-03T02:43:20.330Z,94396.06
2018-03-03T02:44:57.804Z,94423.56
2018-03-03T02:46:36.083Z,94461.58
2018-03-03T02:48:14.208Z,94496.91
2018-03-03T02:49:51.981Z,94464.88
2018-03-03T02:51:31.494Z,94454.27
2018-03-03T02:53:09.081Z,94414.25
2018-03-03T02:54:46.590Z,94453.39
2018-03-03T02:56:25.523Z,94452.14
2018-03-03T02:58:03.228Z,94437.57
2018-03-03T02:59:41.002Z,94496.95
2018-03-03T03:01:20.162Z,94443.28
2018-03-03T03:02:58.204Z,94414.77
2018-03-03T03:04:35.964Z,94400.66
2018-03-03T03:06:14.646Z,94411.70
2018-03-03T03:07:53.738Z,94374.66
2018-03-03T03:09:31.834Z,94351.19
2018-03-03T03:11:10.343Z,94362.34
2018-03-03T03:12:48.460Z,94391.27
2018-03-03T03:14:27.470Z,94425.83
2018-03-03T03:16:06.505Z,94436.91
2018-03-03T03:17:44.207Z,94437.33
2018-03-03T03:19:21.816Z,94401.59
2018-03-03T03:20:59.733Z,94376.39
2018-03-03T03:22:37.925Z,94430.11
2018-03-03T03:24:15.834Z,94440.27
2018-03-03T03:25:54.186Z,94439.05
2018-03-03T03:27:32.702Z,94444.67
2018-03-03T03:29:11.833Z,94483.40
2018-03-03T03:30:50.274Z,94526.63
2018-03-03T03:32:28.600Z,94488.52
2018-03-03T03:34:06.004Z,94425.17
2018-03-03T03:35:45.602Z,94410.10
2018-03-03T03:37:23.720Z,94415.64
2018-03-03T03:39:01.198Z,94483.02
2018-03-03T03:40:39.635Z,94524.78
2018-03-03T03:42:17.676Z,94546.60
2018-03-03T03:43:55.101Z,94465.11
2018-03-03T03:45:32.391Z,94477.82
2018-03-03T03:47:09.919Z,94451.93
2018-03-03T03:48:47.460Z,94450.63
2018-03-03T03:50:26.922Z,94427.17
2018-03-03T03:52:04.790Z,94398.20
2018-03-03T03:53:42.134Z,94414.00
2018-03-03T03:55:19.134Z,94457.47
2018-03-03T03:56:56.325Z,94532.00
2018-03-03T03:58:33.757Z,94563.31
2018-03-03T04:00:14.892Z,94574.36
2018-03-03T04:01:52.270Z,94601.14
2018-03-03T04:03:31.132Z,94593.47
2018-03-03T04:05:08.113Z,94582.75
2018-03-03T04:06:45.645Z,94586.66
2018-03-03T04:08:23.024Z,94601.23
2018-03-03T04:10:00.835Z,94599.47
2018-03-03T04:11:37.936Z,94535.11
2018-03-03T04:13:15.787Z,94567.59
2018-03-03T04:14:53.420Z,94605.14
2018-03-03T04:16:30.932Z,94646.09
2018-03-03T04:18:07.942Z,94709.66
2018-03-03T04:21:27.050Z,94750.69
2018-03-03T04:23:05.261Z,94672.89
2018-03-03T04:24:42.352Z,94654.16
2018-03-03T04:26:20.132Z,94685.33
2018-03-03T04:27:57.343Z,94714.32
2018-03-03T04:29:35.138Z,94738.36
2018-03-03T04:31:12.800Z,94672.47
2018-03-03T04:32:50.470Z,94646.14
2018-03-03T04:34:28.665Z,94643.95
2018-03-03T04:36:05.652Z,94654.23
2018-03-03T04:37:42.951Z,94655.96
2018-03-03T04:39:21.907Z,94623.50
2018-03-03T04:40:59.737Z,94645.59
2018-03-03T04:42:38.024Z,94692.22
2018-03-03T04:44:15.465Z,94699.45
2018-03-03T04:45:53.541Z,94706.80
2018-03-03T04:47:31.269Z,94721.67
2018-03-03T04:49:08.881Z,94701.25
2018-03-03T04:50:47.721Z,94685.45
2018-03-03T04:52:25.691Z,94684.61
2018-03-03T04:54:03.879Z,94687.59
2018-03-03T04:55:40.835Z,94718.27
2018-03-03T04:57:19.050Z,94754.25
2018-03-03T04:58:57.169Z,94777.75
2018-03-03T05:00:35.961Z,94748.20
2018-03-03T05:02:13.218Z,94744.33
2018-03-03T05:03:50.648Z,94701.21
2018-03-03T05:05:27.587Z,94684.61
2018-03-03T05:07:06.393Z,94677.34
2018-03-03T05:08:43.651Z,94629.55
2018-03-03T05:10:21.319Z,94621.05
2018-03-03T05:11:58.714Z,94604.39
2018-03-03T05:13:37.095Z,94558.70
2018-03-03T05:15:17.270Z,94573.73
2018-03-03T05:16:55.912Z,94555.01
2018-03-03T05:18:35.322Z,94564.75
2018-03-03T05:20:13.364Z,94596.73
2018-03-03T05:21:55.031Z,94634.70
2018-03-03T05:23:33.512Z,94584.73
2018-03-03T05:25:12.648Z,94604.00
2018-03-03T05:26:51.150Z,94584.36
2018-03-03T05:28:33.052Z,94585.27
2018-03-03T05:30:10.620Z,94612.16
2018-03-03T05:31:49.797Z,94655.20
2018-03-03T05:33:29.427Z,94688.14
2018-03-03T05:35:07.456Z,94653.11
2018-03-03T05:36:46.035Z,94664.66
2018-03-03T05:38:26.775Z,94671.84
2018-03-03T05:40:04.879Z,94648.91
2018-03-03T05:41:42.669Z,94637.77
2018-03-03T05:43:20.541Z,94704.74
2018-03-03T05:44:59.442Z,94746.27
2018-03-03T05:46:37.952Z,94691.50
2018-03-03T05:48:15.540Z,94673.23
2018-03-03T05:49:53.148Z,94674.41
2018-03-03T05:51:31.059Z,94703.95
2018-03-03T05:53:09.592Z,94776.20
2018-03-03T05:54:47.551Z,94729.66
2018-03-03T05:56:25.009Z,94645.50
2018-03-03T05:59:44.499Z,94615.23
2018-03-03T06:01:23.473Z,94639.08
2018-03-03T06:03:00.980Z,94680.04
2018-03-03T06:04:40.177Z,94719.41
2018-03-03T06:06:18.909Z,94647.23
2018-03-03T06:07:56.871Z,94650.25
2018-03-03T06:09:35.622Z,94638.41
2018-03-03T06:11:13.721Z,94679.31
2018-03-03T06:12:52.138Z,94695.16
2018-03-03T06:16:01.137Z,94732.31
2018-03-03T06:17:39.029Z,94757.86
2018-03-03T06:19:16.788Z,94754.42
2018-03-03T06:20:55.731Z,94733.48
2018-03-03T06:22:34.531Z,94683.56
2018-03-03T06:24:13.384Z,94662.64
2018-03-03T06:25:50.858Z,94720.33
2018-03-03T06:27:28.235Z,94758.24
2018-03-03T06:29:06.278Z,94748.53
2018-03-03T06:30:44.758Z,94736.09
2018-03-03T06:32:22.363Z,94739.95
2018-03-03T06:34:00.638Z,94788.68
2018-03-03T06:35:39.778Z,94758.75
2018-03-03T06:37:21.685Z,94737.86
2018-03-03T06:39:00.151Z,94716.51
2018-03-03T06:40:38.516Z,94688.73
2018-03-03T06:42:19.545Z,94632.81
2018-03-03T06:43:57.751Z,94643.49
2018-03-03T06:45:36.196Z,94631.56
2018-03-03T06:47:14.756Z,94665.72
2018-03-03T06:48:53.011Z,94640.97
2018-03-03T06:52:30.184Z,94628.11
2018-03-03T06:54:08.543Z,94660.16
2018-03-03T06:55:46.626Z,94689.99
2018-03-03T06:57:24.516Z,94745.63
2018-03-03T06:59:02.958Z,94755.34
2018-03-03T07:00:41.442Z,94718.70
2018-03-03T07:02:20.338Z,94632.39
2018-03-03T07:04:05.291Z,94611.94
2018-03-03T07:05:42.948Z,94568.48
2018-03-03T07:07:22.124Z,94573.65
2018-03-03T07:09:00.343Z,94582.14
2018-03-03T07:10:38.970Z,94576.59
2018-03-03T07:12:20.658Z,94592.47
2018-03-03T07:13:58.775Z,94610.69
2018-03-03T07:15:36.635Z,94599.73
2018-03-03T07:17:15.352Z,94638.41
2018-03-03T07:18:53.518Z,94606.91
2018-03-03T07:20:33.444Z,94581.33
2018-03-03T07:22:11.134Z,94530.58
2018-03-03T07:23:48.650Z,94525.88
2018-03-03T07:25:25.977Z,94564.63
2018-03-03T07:27:05.373Z,94576.67
2018-03-03T07:28:44.721Z,94539.91
2018-03-03T07:30:26.124Z,94554.47
2018-03-03T07:32:08.932Z,94581.75
2018-03-03T07:33:50.554Z,94618.08
2018-03-03T07:35:29.624Z,94608.63
2018-03-03T07:37:17.011Z,94588.52
2018-03-03T07:39:01.427Z,94606.11
2018-03-03T07:40:55.498Z,94599.30
2018-03-03T07:42:47.845Z,94605.98
2018-03-03T07:44:36.644Z,94616.27
2018-03-03T07:46:16.484Z,94600.98
2018-03-03T07:47:54.023Z,94633.83
2018-03-03T07:49:35.907Z,94650.42
2018-03-03T07:51:14.506Z,94658.15
2018-03-03T07:52:51.851Z,94677.77
2018-03-03T07:54:29.864Z,94678.14
2018-03-03T07:56:07.493Z,94734.16
2018-03-03T07:57:45.219Z,94761.02
2018-03-03T07:59:22.976Z,94742.31
2018-03-03T08:01:01.812Z,94761.14
2018-03-03T08:02:39.949Z,94805.88
2018-03-03T08:04:17.384Z,94794.77
2018-03-03T08:05:54.629Z,94782.45
2018-03-03T08:07:32.057Z,94775.98
2018-03-03T08:09:10.565Z,94773.04
2018-03-03T08:10:49.571Z,94784.98
2018-03-03T08:12:26.827Z,94737.60
2018-03-03T08:14:03.927Z,94706.09
2018-03-03T08:15:42.592Z,94722.80
2018-03-03T08:17:20.107Z,94749.12
2018-03-03T08:18:57.561Z,94776.86
2018-03-03T08:20:34.802Z,94786.70
2018-03-03T08:22:12.626Z,94821.34
2018-03-03T08:23:49.861Z,94817.90
2018-03-03T08:25:27.551Z,94822.23
2018-03-03T08:27:05.298Z,94784.68
2018-03-03T08:28:42.933Z,94775.64
2018-03-03T08:30:20.837Z,94826.98
2018-03-03T08:31:58.358Z,94804.23
2018-03-03T08:33:35.578Z,94801.75
2018-03-03T08:35:13.095Z,94837.62
2018-03-03T08:36:50.204Z,94852.89
2018-03-03T08:38:27.558Z,94890.20
2018-03-03T08:40:05.731Z,94890.58
2018-03-03T08:41:43.935Z,94891.77
2018-03-03T08:43:20.976Z,94959.80
2018-03-03T08:44:58.050Z,95016.76
2018-03-03T08:46:35.365Z,94968.81
2018-03-03T08:48:12.934Z,94999.16
2018-03-03T08:49:50.218Z,95030.45
2018-03-03T08:51:27.888Z,95020.16
2018-03-03T08:53:04.926Z,95141.31
2018-03-03T08:54:43.345Z,95181.48
2018-03-03T08:56:21.168Z,95139.16
2018-03-03T08:57:58.951Z,95105.33
2018-03-03T08:59:36.859Z,95121.13
2018-03-03T09:01:15.603Z,95110.00
2018-03-03T09:02:54.168Z,95140.42
2018-03-03T09:04:31.444Z,95157.61
2018-03-03T09:06:09.200Z,95102.80
2018-03-03T09:07:48.229Z,95092.86
2018-03-03T09:09:26.388Z,95093.28
2018-03-03T09:11:03.480Z,95152.43
2018-03-03T09:12:40.418Z,95168.70
2018-03-03T09:14:19.721Z,95149.02
2018-03-03T09:15:57.190Z,95108.40
2018-03-03T09:17:34.378Z,95063.03
2018-03-03T09:19:11.418Z,95009.13
2018-03-03T09:20:49.355Z,94995.83
2018-03-03T09:22:26.867Z,95027.15
2018-03-03T09:24:04.858Z,95100.23
2018-03-03T09:25:42.783Z,95154.20
2018-03-03T09:27:20.174Z,95147.75
2018-03-03T09:28:57.574Z,95159.38
2018-03-03T09:30:35.081Z,95179.06
2018-03-03T09:32:12.987Z,95230.88
2018-03-03T09:33:51.555Z,95201.31
2018-03-03T09:35:28.946Z,95219.70
2018-03-03T09:37:06.539Z,95170.09
2018-03-03T09:38:46.943Z,95117.83
2018-03-03T09:40:24.586Z,95085.65
2018-03-03T09:42:02.029Z,95126.43
2018-03-03T09:43:39.112Z,95169.20
2018-03-03T09:45:18.696Z,95174.00
2018-03-03T09:46:57.119Z,95144.88
2018-03-03T09:48:34.191Z,95170.97
2018-03-03T09:50:11.629Z,95208.64
2018-03-03T09:51:48.867Z,95269.41
2018-03-03T09:53:27.383Z,95310.19
2018-03-03T09:55:05.412Z,95340.69
2018-03-03T09:56:42.572Z,95405.84
2018-03-03T09:58:19.609Z,95505.33
2018-03-03T09:59:57.014Z,95522.02
2018-03-03T10:01:34.790Z,95569.75
2018-03-03T10:03:11.903Z,95583.89
2018-03-03T10:04:49.992Z,95600.64
2018-03-03T10:06:27.866Z,95622.98
2018-03-03T10:08:05.732Z,95632.38
2018-03-03T10:09:42.850Z,95641.38
2018-03-03T10:11:20.212Z,95597.17
2018-03-03T10:12:58.311Z,95571.05
2018-03-03T10:14:35.615Z,95543.55
2018-03-03T10:16:13.133Z,95485.60
2018-03-03T10:17:50.409Z,95459.50
2018-03-03T10:19:28.193Z,95488.22
2018-03-03T10:21:05.543Z,95494.48
2018-03-03T10:22:43.372Z,95498.59
2018-03-03T10:24:21.595Z,95480.95
2018-03-03T10:25:59.002Z,95471.95
2018-03-03T10:27:35.989Z,95477.45
2018-03-03T10:29:13.054Z,95499.33
2018-03-03T10:30:50.966Z,95613.52
2018-03-03T10:32:30.222Z,95769.94
2018-03-03T10:34:07.892Z,95745.12
2018-03-03T10:35:45.109Z,95740.01
2018-03-03T10:37:22.772Z,95794.52
2018-03-03T10:39:00.552Z,95720.64
2018-03-03T10:40:37.642Z,95634.69
2018-03-03T10:42:14.719Z,95651.05
2018-03-03T10:43:51.756Z,95641.92
2018-03-03T10:45:30.789Z,95612.39
2018-03-03T10:47:08.253Z,95646.27
2018-03-03T10:48:45.426Z,95657.89
2018-03-03T10:50:22.444Z,95712.91
2018-03-03T10:52:00.029Z,95722.80
2018-03-03T10:53:38.814Z,95783.80
2018-03-03T10:55:15.850Z,95849.17
2018-03-03T10:56:53.198Z,95839.63
2018-03-03T10:58:30.916Z,95867.67
2018-03-03T11:00:09.525Z,95958.11
2018-03-03T11:01:47.494Z,95919.78
2018-03-03T11:03:24.467Z,95878.04
2018-03-03T11:05:02.118Z,95958.96
2018-03-03T11:06:39.189Z,95919.36
2018-03-03T11:08:16.467Z,95855.65
2018-03-03T11:09:53.473Z,95845.78
2018-03-03T11:11:30.983Z,95852.72
2018-03-03T11:13:07.946Z,95914.70
2018-03-03T11:14:45.798Z,95915.58
2018-03-03T11:16:23.144Z,95963.31
2018-03-03T11:18:00.633Z,95946.96
2018-03-03T11:19:38.376Z,95907.80
2018-03-03T11:21:15.410Z,95905.67
2018-03-03T11:22:52.862Z,95893.25
2018-03-03T11:24:30.564Z,95887.17
2018-03-03T11:26:07.705Z,95903.09
2018-03-03T11:27:44.772Z,95905.63
2018-03-03T11:29:22.027Z,95854.91
2018-03-03T11:31:00.090Z,95864.36
2018-03-03T11:32:37.612Z,95857.95
2018-03-03T11:34:15.473Z,95899.70
2018-03-03T11:35:52.349Z,95984.45
2018-03-03T11:37:30.042Z,96180.02
2018-03-03T11:39:07.412Z,96124.73
2018-03-03T11:40:44.536Z,96096.76
2018-03-03T11:42:21.509Z,96095.88
2018-03-03T11:43:59.041Z,96097.72
2018-03-03T11:45:36.900Z,96214.08
2018-03-03T11:47:13.921Z,96219.68
2018-03-03T11:48:51.001Z,96117.59
2018-03-03T11:50:28.859Z,96106.70
2018-03-03T11:52:06.614Z,96145.69
2018-03-03T11:53:43.759Z,96118.80
2018-03-03T11:55:20.873Z,96127.51
2018-03-03T11:56:58.419Z,96161.13
2018-03-03T11:58:36.319Z,96124.46
2018-03-03T12:00:15.984Z,96104.23
2018-03-03T12:01:53.614Z,96100.34
2018-03-03T12:03:31.712Z,96105.13
2018-03-03T12:05:09.793Z,96140.47
2018-03-03T12:06:47.118Z,96179.70
2018-03-03T12:08:24.330Z,96241.73
2018-03-03T12:10:02.617Z,96235.70
2018-03-03T12:11:39.717Z,96198.63
2018-03-03T12:13:16.758Z,96209.37
2018-03-03T12:14:54.363Z,96218.44
2018-03-03T12:16:33.797Z,96227.55
2018-03-03T12:18:11.062Z,96185.38
2018-03-03T12:19:48.507Z,96169.03
2018-03-03T12:21:25.836Z,96159.47
2018-03-03T12:23:03.136Z,96146.92
2018-03-03T12:24:40.328Z,96208.62
2018-03-03T12:26:18.170Z,96187.07
2018-03-03T12:27:55.465Z,96212.52
2018-03-03T12:29:33.396Z,96230.14
2018-03-03T12:31:10.718Z,96318.53
2018-03-03T12:32:48.789Z,96392.83
2018-03-03T12:34:26.826Z,96323.65
2018-03-03T12:36:04.777Z,96324.17
2018-03-03T12:37:41.800Z,96375.52
2018-03-03T12:39:20.434Z,96435.88
2018-03-03T12:40:58.445Z,96469.14
2018-03-03T12:42:35.975Z,96497.30
2018-03-03T12:44:13.153Z,96504.65
2018-03-03T12:45:51.017Z,96468.75
2018-03-03T12:47:28.236Z,96463.17
2018-03-03T12:49:06.195Z,96409.65
2018-03-03T12:50:43.451Z,96434.31
2018-03-03T12:52:21.379Z,96492.14
2018-03-03T12:53:58.655Z,96536.22
2018-03-03T12:55:38.288Z,96588.47
2018-03-03T12:57:16.246Z,96641.67
2018-03-03T12:58:54.300Z,96643.77
2018-03-03T13:02:10.637Z,96608.30
2018-03-03T13:03:48.505Z,96613.12
2018-03-03T13:05:26.665Z,96673.23
2018-03-03T13:08:38.174Z,96854.84
2018-03-03T13:10:28.972Z,96918.12
2018-03-03T13:12:11.658Z,96958.83
2018-03-03T13:13:49.970Z,96954.09
2018-03-03T13:15:27.135Z,96838.01
2018-03-03T13:17:05.083Z,96764.47
2018-03-03T13:18:42.473Z,96752.41
2018-03-03T13:20:20.938Z,96798.30
2018-03-03T13:21:58.108Z,96941.55
2018-03-03T13:23:35.832Z,96943.72
2018-03-03T13:25:14.100Z,96987.03
2018-03-03T13:26:57.455Z,96997.43
2018-03-03T13:28:36.094Z,96902.20
2018-03-03T13:30:15.804Z,96783.20
2018-03-03T13:31:52.813Z,96734.34
2018-03-03T13:33:30.506Z,96699.31
2018-03-03T13:35:07.612Z,96755.08
2018-03-03T13:36:44.878Z,96725.20
2018-03-03T13:38:24.684Z,96683.28
2018-03-03T13:40:07.772Z,96651.33
2018-03-03T13:41:47.104Z,96618.45
2018-03-03T13:43:24.808Z,96597.70
2018-03-03T13:45:03.458Z,96598.55
2018-03-03T13:46:41.825Z,96601.19
2018-03-03T13:48:19.148Z,96614.58
2018-03-03T13:49:58.562Z,96632.37
2018-03-03T13:51:35.952Z,96654.41
2018-03-03T13:53:13.532Z,96675.56
2018-03-03T13:54:50.752Z,96652.22
2018-03-03T13:56:27.942Z,96645.31
2018-03-03T13:58:05.743Z,96673.83
2018-03-03T13:59:42.870Z,96671.20
2018-03-03T14:01:20.113Z,96703.72
2018-03-03T14:02:57.984Z,96666.92
2018-03-03T14:04:35.525Z,96686.41
2018-03-03T14:06:13.141Z,96708.02
2018-03-03T14:07:53.411Z,96713.57
2018-03-03T14:09:30.634Z,96704.14
2018-03-03T14:11:07.724Z,96726.22
2018-03-03T14:12:48.752Z,96752.19
2018-03-03T14:14:26.832Z,96816.54
2018-03-03T14:16:04.140Z,96830.87
2018-03-03T14:17:41.553Z,96848.62
2018-03-03T14:19:19.854Z,96830.02
2018-03-03T14:20:57.926Z,96823.08
2018-03-03T14:22:36.003Z,96840.77
2018-03-03T14:24:13.914Z,96862.94
2018-03-03T14:25:52.121Z,96885.92
2018-03-03T14:27:29.448Z,96884.61
2018-03-03T14:29:07.317Z,96834.36
2018-03-03T14:30:45.582Z,96813.13
2018-03-03T14:32:24.617Z,96823.55
2018-03-03T14:34:01.930Z,96886.81
2018-03-03T14:35:39.478Z,96956.58
2018-03-03T14:37:17.024Z,96988.14
2018-03-03T14:38:58.791Z,97023.27
2018-03-03T14:40:36.267Z,97167.63
2018-03-03T14:42:13.935Z,97114.27
2018-03-03T14:43:57.184Z,97050.09
2018-03-03T14:45:34.934Z,97008.09
2018-03-03T14:47:12.405Z,96983.80
2018-03-03T14:48:49.719Z,96973.89
2018-03-03T14:50:26.812Z,96960.37
2018-03-03T14:52:12.378Z,96975.20
2018-03-03T14:53:49.744Z,96968.69
2018-03-03T14:55:26.838Z,96953.52
2018-03-03T14:57:04.286Z,96957.05
2018-03-03T14:58:41.552Z,96958.36
2018-03-03T15:00:19.506Z,96972.14
2018-03-03T15:01:56.863Z,97024.19
2018-03-03T15:03:34.683Z,97069.31
2018-03-03T15:05:13.068Z,97108.73
2018-03-03T15:06:50.910Z,97165.98
2018-03-03T15:08:28.956Z,97153.86
2018-03-03T15:10:06.678Z,97168.59
2018-03-03T15:11:43.740Z,97192.41
2018-03-03T15:13:21.133Z,97221.51
2018-03-03T15:14:59.125Z,97180.31
2018-03-03T15:16:36.493Z,97125.70
2018-03-03T15:18:13.582Z,97071.95
2018-03-03T15:19:50.901Z,97045.91
2018-03-03T15:21:34.045Z,97034.28
2018-03-03T15:23:11.540Z,97011.12
2018-03-03T15:24:48.939Z,96993.05
2018-03-03T15:26:27.154Z,96982.22
2018-03-03T15:28:04.909Z,96988.34
2018-03-03T15:29:42.533Z,96999.56
2018-03-03T15:31:26.748Z,97025.62
2018-03-03T15:33:05.521Z,97056.73
2018-03-03T15:34:43.798Z,97091.05
2018-03-03T15:36:20.930Z,97104.48
2018-03-03T15:37:58.218Z,97075.47
2018-03-03T15:39:35.612Z,97030.34
2018-03-03T15:41:13.086Z,96983.11
2018-03-03T15:42:51.206Z,96990.08
2018-03-03T15:44:31.609Z,96994.00
2018-03-03T15:46:08.962Z,97023.88
2018-03-03T15:47:52.878Z,97031.28
2018-03-03T15:49:30.371Z,97032.97
2018-03-03T15:51:07.523Z,97082.41
2018-03-03T15:52:44.897Z,97118.81
2018-03-03T15:54:22.555Z,97070.73
2018-03-03T15:56:00.469Z,97042.05
2018-03-03T15:57:37.728Z,97098.91
2018-03-03T15:59:14.869Z,97100.26
2018-03-03T16:00:53.881Z,97038.27
2018-03-03T16:02:32.015Z,97023.42
2018-03-03T16:05:55.068Z,96954.54
2018-03-03T16:07:32.222Z,96890.92
2018-03-03T16:09:09.775Z,96889.23
2018-03-03T16:10:46.733Z,96848.53
2018-03-03T16:12:24.747Z,96861.13
2018-03-03T16:14:01.862Z,96870.23
2018-03-03T16:15:39.092Z,96879.31
2018-03-03T16:17:16.272Z,96876.25
2018-03-03T16:18:53.707Z,96856.36
2018-03-03T16:20:31.575Z,96857.70
2018-03-03T16:22:09.543Z,96825.16
2018-03-03T16:23:46.630Z,96747.78
2018-03-03T16:25:25.236Z,96710.55
2018-03-03T16:27:03.079Z,96690.61
2018-03-03T16:28:40.903Z,96676.89
2018-03-03T16:30:19.999Z,96682.97
2018-03-03T16:31:57.352Z,96640.53
2018-03-03T16:33:34.610Z,96670.34
2018-03-03T16:35:11.704Z,96673.05
2018-03-03T16:36:48.995Z,96682.05
2018-03-03T16:38:27.666Z,96685.49
2018-03-03T16:40:04.847Z,96672.55
2018-03-03T16:41:41.953Z,96674.26
2018-03-03T16:43:19.011Z,96702.34
2018-03-03T16:44:56.285Z,96651.34
2018-03-03T16:46:33.519Z,96651.44
2018-03-03T16:48:10.497Z,96619.38
2018-03-03T16:49:48.427Z,96615.55
2018-03-03T16:51:25.831Z,96579.73
2018-03-03T16:53:02.785Z,96552.45
2018-03-03T16:54:39.922Z,96505.00
2018-03-03T16:56:17.077Z,96486.44
2018-03-03T16:57:54.613Z,96459.67
2018-03-03T16:59:32.227Z,96447.14
2018-03-03T17:01:10.903Z,96463.97
2018-03-03T17:02:48.128Z,96439.80
2018-03-03T17:04:26.131Z,96418.14
2018-03-03T17:07:39.776Z,96381.48
2018-03-03T17:09:17.652Z,96377.23
2018-03-03T17:11:00.144Z,96366.41
2018-03-03T17:12:38.088Z,96345.66
2018-03-03T17:14:15.156Z,96348.71
2018-03-03T17:15:54.147Z,96335.34
2018-03-03T17:17:32.308Z,96337.50
2018-03-03T17:19:08.799Z,96337.92
2018-03-03T17:20:46.079Z,96329.38
2018-03-03T17:22:23.539Z,96313.34
2018-03-03T17:24:01.727Z,96277.64
2018-03-03T17:25:38.763Z,96264.20
2018-03-03T17:27:15.860Z,96240.52
2018-03-03T17:28:52.975Z,96204.30
2018-03-03T17:30:31.152Z,96210.35
2018-03-03T17:33:49.816Z,96243.53
2018-03-03T17:35:27.833Z,96234.88
2018-03-03T17:37:06.359Z,96249.23
2018-03-03T17:38:43.762Z,96247.00
2018-03-03T17:40:21.102Z,96271.11
2018-03-03T17:41:58.839Z,96265.05
2018-03-03T17:43:36.337Z,96258.14
2018-03-03T17:45:15.511Z,96222.80
2018-03-03T17:46:54.290Z,96197.38
2018-03-03T17:48:32.258Z,96215.11
2018-03-03T17:50:10.625Z,96205.64
2018-03-03T17:53:36.108Z,96138.50
2018-03-03T17:55:13.950Z,96086.32
2018-03-03T17:56:52.176Z,96063.02
2018-03-03T17:58:29.695Z,96070.77
2018-03-03T18:00:07.619Z,96074.25
2018-03-03T18:03:37.690Z,96087.17
2018-03-03T18:05:16.707Z,96055.72
2018-03-03T18:06:54.477Z,96024.25
2018-03-03T18:08:32.110Z,96023.41
2018-03-03T18:10:10.352Z,95996.25
2018-03-03T18:12:00.483Z,95998.45
2018-03-03T18:13:42.033Z,95994.98
2018-03-03T18:15:22.177Z,95979.94
2018-03-03T18:17:05.739Z,95969.14
2018-03-03T18:18:44.037Z,95961.00
2018-03-03T18:20:21.501Z,95970.88
2018-03-03T18:22:16.149Z,95955.84
2018-03-03T18:23:58.145Z,95936.98
2018-03-03T18:25:40.253Z,95927.43
2018-03-03T18:27:20.849Z,95906.91
2018-03-03T18:29:01.922Z,95889.27
2018-03-03T18:31:10.355Z,95868.19
2018-03-03T18:32:53.049Z,95854.36
2018-03-03T18:34:36.429Z,95866.06
2018-03-03T18:36:16.004Z,95858.39
2018-03-03T18:37:54.782Z,95854.43
2018-03-03T18:39:45.306Z,95872.50
2018-03-03T18:41:27.307Z,95887.95
2018-03-03T18:43:10.167Z,95883.64
2018-03-03T18:44:49.290Z,95867.73
2018-03-03T18:46:33.064Z,95875.89
2018-03-03T18:48:14.359Z,95885.91
2018-03-03T18:49:52.696Z,95896.59
2018-03-03T18:51:30.157Z,95898.74
2018-03-03T18:53:07.415Z,95881.02
2018-03-03T18:54:45.807Z,95914.63
2018-03-03T18:56:26.467Z,95934.44
2018-03-03T18:58:03.523Z,95959.31
2018-03-03T18:59:40.516Z,96044.72
2018-03-03T19:01:18.252Z,96127.72
2018-03-03T19:02:55.246Z,96124.25
2018-03-03T19:04:32.993Z,95990.80
2018-03-03T19:06:10.801Z,95880.25
2018-03-03T19:07:47.923Z,95778.73
2018-03-03T19:09:24.857Z,95731.91
2018-03-03T19:11:02.620Z,95755.23
2018-03-03T19:12:39.633Z,95757.67
2018-03-03T19:14:17.362Z,95721.63
2018-03-03T19:15:55.498Z,95724.63
2018-03-03T19:17:32.552Z,95807.20
2018-03-03T19:19:09.948Z,95730.99
2018-03-03T19:20:46.932Z,95695.42
2018-03-03T19:22:23.967Z,95646.04
2018-03-03T19:24:01.080Z,95613.38
2018-03-03T19:25:38.876Z,95600.95
2018-03-03T19:27:16.003Z,95607.80
2018-03-03T19:28:53.644Z,95583.30
2018-03-03T19:30:31.264Z,95570.41
2018-03-03T19:32:08.665Z,95539.07
2018-03-03T19:33:46.300Z,95533.53
2018-03-03T19:35:23.313Z,95529.30
2018-03-03T19:37:01.928Z,95535.72